Time;durP1;ratioP1;P1;durP2;ratioP2;P2;SDS_P1;SDS_P2;PMS_P1;PMS_P2;Temp;Humidity;BMP_temperature;BMP_pressure;BME280_temperature;BME280_humidity;BME280_pressure;Samples;Min_cycle;Max_cycle;Signal;HPM_P1;HPM_P2
2023/09/22 00:00:15;;;;;;;3.00;0.82;;;;;;;23.50;52.87;99456.97;5051302;28;20396;-40
2023/09/22 00:02:46;;;;;;;2.22;0.60;;;;;;;23.50;53.03;99459.78;5052102;28;20056;-41
2023/09/22 00:05:14;;;;;;;4.05;1.08;;;;;;;23.48;53.22;99463.03;5051524;28;20041;-40
2023/09/22 00:07:43;;;;;;;3.60;0.90;;;;;;;23.48;52.92;99473.47;5070237;28;20052;-42
2023/09/22 00:10:12;;;;;;;2.95;0.77;;;;;;;23.47;53.02;99457.84;5063966;28;20049;-39
2023/09/22 00:12:41;;;;;;;2.78;0.80;;;;;;;23.39;52.73;99465.59;5034952;28;20049;-40
2023/09/22 00:15:10;;;;;;;5.85;0.95;;;;;;;23.38;53.26;99459.19;5047373;28;20061;-40
2023/09/22 00:17:38;;;;;;;3.33;1.10;;;;;;;23.41;52.96;99461.13;5064607;28;20045;-39
2023/09/22 00:20:12;;;;;;;4.07;0.75;;;;;;;23.42;52.73;99464.72;5051949;28;20044;-41
2023/09/22 00:22:41;;;;;;;6.40;1.30;;;;;;;23.43;52.38;99449.47;5051496;28;20044;-40
2023/09/22 00:25:09;;;;;;;3.72;0.88;;;;;;;23.40;52.38;99456.72;5050598;28;20511;-41
2023/09/22 00:27:37;;;;;;;3.47;1.20;;;;;;;23.38;52.53;99459.19;5058303;28;20052;-39
2023/09/22 00:30:05;;;;;;;2.47;0.70;;;;;;;23.39;52.43;99457.16;5068878;28;20048;-39
2023/09/22 00:32:33;;;;;;;3.88;1.00;;;;;;;23.37;52.62;99459.63;5067462;28;20131;-38
2023/09/22 00:35:00;;;;;;;6.45;1.10;;;;;;;23.36;52.65;99467.25;5070196;28;20083;-44
2023/09/22 00:37:28;;;;;;;3.38;0.88;;;;;;;23.35;52.36;99473.28;5056329;28;20053;-39
2023/09/22 00:39:55;;;;;;;3.58;0.73;;;;;;;23.28;52.52;99467.81;5051424;28;20041;-40
2023/09/22 00:42:23;;;;;;;3.00;0.70;;;;;;;23.27;52.42;99464.19;5059737;28;20056;-40
2023/09/22 00:44:51;;;;;;;2.45;0.77;;;;;;;23.31;52.25;99464.13;5071204;28;20053;-39
2023/09/22 00:47:18;;;;;;;3.17;0.80;;;;;;;23.33;51.84;99467.31;5071225;28;20060;-40
2023/09/22 00:49:46;;;;;;;5.40;1.05;;;;;;;23.31;52.01;99472.56;5049323;28;20056;-42
2023/09/22 00:52:13;;;;;;;2.53;0.70;;;;;;;23.31;52.02;99464.13;5033373;28;20057;-49
2023/09/22 00:54:40;;;;;;;3.35;1.00;;;;;;;23.33;51.89;99470.13;5051163;28;20049;-52
2023/09/22 00:57:09;;;;;;;4.05;0.90;;;;;;;23.31;51.79;99464.13;5033347;28;20048;-50
2023/09/22 00:59:37;;;;;;;3.95;0.98;;;;;;;23.31;51.91;99464.13;5033205;28;20057;-42
2023/09/22 01:02:04;;;;;;;2.75;0.85;;;;;;;23.31;51.88;99459.31;5051128;28;20064;-45
2023/09/22 01:04:33;;;;;;;4.18;1.00;;;;;;;23.30;51.70;99462.56;5051309;28;20053;-39
2023/09/22 01:07:01;;;;;;;5.18;1.00;;;;;;;23.28;52.04;99465.78;5049785;28;20049;-51
2023/09/22 01:09:29;;;;;;;4.70;1.00;;;;;;;23.28;52.12;99474.22;5053315;28;20052;-46
2023/09/22 01:11:56;;;;;;;4.13;1.15;;;;;;;23.32;52.30;99466.53;5066559;28;20045;-39
2023/09/22 01:14:23;;;;;;;1.30;0.70;;;;;;;23.29;52.57;99456.13;5051318;28;20060;-40
2023/09/22 01:16:51;;;;;;;3.20;0.90;;;;;;;23.25;52.39;99460.22;5054592;28;20048;-40
2023/09/22 01:19:19;;;;;;;5.18;0.90;;;;;;;23.29;52.24;99460.97;5055214;28;20051;-40
2023/09/22 01:21:48;;;;;;;3.63;1.00;;;;;;;23.24;52.58;99455.81;5055204;28;20060;-41
2023/09/22 01:24:15;;;;;;;3.23;0.83;;;;;;;23.25;52.43;99454.59;5053728;28;20041;-40
2023/09/22 01:26:43;;;;;;;3.42;0.80;;;;;;;23.19;52.22;99454.28;5054872;28;20057;-39
2023/09/22 01:29:10;;;;;;;3.88;0.95;;;;;;;23.21;52.64;99453.84;5084919;28;20041;-41
2023/09/22 01:31:38;;;;;;;2.10;0.80;;;;;;;23.26;52.27;99461.78;5041702;28;20056;-48
2023/09/22 01:34:08;;;;;;;2.83;0.90;;;;;;;23.25;52.36;99457.41;5038758;28;20049;-40
2023/09/22 01:36:35;;;;;;;3.10;0.75;;;;;;;23.25;51.88;99461.00;5049843;28;20053;-39
2023/09/22 01:39:04;;;;;;;2.88;0.70;;;;;;;23.22;52.07;99463.88;5037608;28;20056;-40
2023/09/22 01:41:35;;;;;;;4.15;0.85;;;;;;;23.19;51.94;99442.25;5056010;28;20052;-38
2023/09/22 01:44:03;;;;;;;5.95;1.30;;;;;;;23.18;51.86;99457.53;5070025;28;20060;-39
2023/09/22 01:46:31;;;;;;;4.68;1.00;;;;;;;23.13;51.88;99452.41;5054745;28;20049;-40
2023/09/22 01:48:59;;;;;;;5.05;0.90;;;;;;;23.19;52.03;99457.09;5056491;28;20053;-40
2023/09/22 01:51:27;;;;;;;4.40;1.50;;;;;;;23.21;51.84;99453.84;5055257;28;20056;-39
2023/09/22 01:53:55;;;;;;;3.53;1.20;;;;;;;23.19;51.58;99451.47;5067663;28;20507;-40
2023/09/22 01:56:22;;;;;;;4.85;1.05;;;;;;;23.14;51.33;99460.41;5054346;28;20598;-39
2023/09/22 01:58:50;;;;;;;5.40;0.95;;;;;;;23.12;51.47;99457.22;5052904;28;20041;-42
2023/09/22 02:01:18;;;;;;;3.70;1.40;;;;;;;23.12;51.62;99457.22;5048021;28;20083;-39
2023/09/22 02:03:45;;;;;;;3.70;1.27;;;;;;;23.12;51.42;99453.59;5050783;28;20055;-41
2023/09/22 02:06:13;;;;;;;5.75;1.60;;;;;;;23.13;51.26;99455.22;5035911;28;20075;-40
2023/09/22 02:08:40;;;;;;;5.63;1.60;;;;;;;23.17;51.09;99447.53;5032403;28;20053;-42
2023/09/22 02:11:08;;;;;;;5.68;1.80;;;;;;;23.14;52.09;99451.16;5068295;28;20415;-39
2023/09/22 02:13:35;;;;;;;5.25;1.40;;;;;;;23.16;51.43;99457.16;5053437;28;20049;-39
2023/09/22 02:16:03;;;;;;;4.78;1.65;;;;;;;23.15;52.11;99464.78;5052893;28;20049;-38
2023/09/22 02:18:31;;;;;;;4.85;1.70;;;;;;;23.10;52.00;99461.69;5051090;28;20656;-40
2023/09/22 02:20:58;;;;;;;8.00;1.80;;;;;;;23.11;52.04;99461.25;5051048;28;20053;-41
2023/09/22 02:23:26;;;;;;;5.20;1.65;;;;;;;23.14;51.45;99468.03;5052779;28;20063;-41
2023/09/22 02:25:54;;;;;;;4.70;1.58;;;;;;;23.17;51.63;99467.19;5051571;28;20056;-39
2023/09/22 02:28:23;;;;;;;7.50;1.73;;;;;;;23.16;51.65;99469.19;5056512;28;20061;-40
2023/09/22 02:30:50;;;;;;;5.07;1.52;;;;;;;23.13;52.07;99455.22;5067074;28;20049;-39
2023/09/22 02:33:18;;;;;;;5.25;1.50;;;;;;;23.14;51.64;99460.41;5032115;28;20057;-39
2023/09/22 02:35:45;;;;;;;6.05;1.58;;;;;;;23.11;51.88;99466.88;5047212;28;20049;-40
2023/09/22 02:38:13;;;;;;;3.08;1.27;;;;;;;23.11;51.75;99469.69;5053548;28;20167;-41
2023/09/22 02:40:41;;;;;;;4.22;1.30;;;;;;;23.12;51.53;99478.88;5062329;28;20040;-41
2023/09/22 02:43:08;;;;;;;4.75;1.38;;;;;;;23.10;51.64;99479.31;5081469;28;20056;-38
2023/09/22 02:45:39;;;;;;;6.20;1.42;;;;;;;23.10;51.59;99481.34;5073314;28;20063;-40
2023/09/22 02:48:07;;;;;;;10.30;1.50;;;;;;;23.08;51.72;99478.94;5072485;28;20502;-39
2023/09/22 02:50:34;;;;;;;3.92;1.10;;;;;;;23.07;51.82;99474.56;5051661;28;20068;-40
2023/09/22 02:53:03;;;;;;;4.25;1.10;;;;;;;23.08;51.70;99467.72;5052958;28;20683;-42
2023/09/22 02:55:32;;;;;;;3.67;1.25;;;;;;;23.10;51.57;99473.69;5051973;28;20053;-39
2023/09/22 02:58:00;;;;;;;3.22;0.90;;;;;;;23.08;51.53;99478.94;5053122;28;20052;-38
2023/09/22 03:00:28;;;;;;;4.80;1.20;;;;;;;23.14;51.27;99470.81;5040357;28;20083;-39
2023/09/22 03:02:55;;;;;;;2.35;1.00;;;;;;;23.04;51.55;99474.63;5073090;28;20369;-42
2023/09/22 03:05:24;;;;;;;5.47;1.20;;;;;;;23.05;51.29;99482.63;5063164;28;20053;-40
2023/09/22 03:07:55;;;;;;;;;;;;;;;23.08;50.82;99476.13;5048963;28;20053;-39
2023/09/22 03:10:23;;;;;;;4.72;1.25;;;;;;;23.09;50.97;99468.50;5051742;28;19924;-39
2023/09/22 03:12:53;;;;;;;3.10;1.10;;;;;;;23.08;50.92;99461.31;5050752;28;20041;-40
2023/09/22 03:15:23;;;;;;;4.25;1.10;;;;;;;23.05;50.48;99462.16;5061435;28;20056;-41
2023/09/22 03:17:50;;;;;;;3.13;0.85;;;;;;;22.98;50.65;99462.31;5054852;28;20522;-40
2023/09/22 03:20:18;;;;;;;5.72;1.00;;;;;;;23.00;50.76;99462.66;5071235;28;20051;-38
2023/09/22 03:22:46;;;;;;;6.65;1.27;;;;;;;23.01;50.38;99467.06;5071167;28;20048;-40
2023/09/22 03:25:14;;;;;;;3.65;1.00;;;;;;;23.04;50.38;99463.38;5062438;28;20053;-39
2023/09/22 03:27:43;;;;;;;3.42;0.80;;;;;;;23.02;50.14;99468.63;5057907;28;20037;-41
2023/09/22 03:30:15;;;;;;;4.18;1.13;;;;;;;23.04;49.86;99472.63;5053679;28;20045;-39
2023/09/22 03:32:43;;;;;;;;;;;;;;;23.05;49.90;99476.19;5071357;28;20071;-38
2023/09/22 03:35:13;;;;;;;;;;;;;;;23.03;50.17;99473.81;5064708;28;19924;-39
2023/09/22 03:37:41;;;;;;;6.82;1.23;;;;;;;23.02;49.71;99472.25;5050166;28;19928;-41
2023/09/22 03:40:13;;;;;;;4.07;0.90;;;;;;;23.02;50.06;99466.63;5055588;28;20049;-39
2023/09/22 03:42:43;;;;;;;3.80;1.05;;;;;;;23.02;50.15;99469.44;5075947;28;20075;-40
2023/09/22 03:45:12;;;;;;;5.20;1.15;;;;;;;23.01;50.42;99470.63;5051956;28;20060;-40
2023/09/22 03:47:40;;;;;;;3.28;0.85;;;;;;;23.01;50.30;99472.69;5054971;28;20044;-39
2023/09/22 03:50:08;;;;;;;5.47;1.10;;;;;;;23.04;50.45;99469.00;5066020;28;20052;-41
2023/09/22 03:52:36;;;;;;;4.78;1.05;;;;;;;23.00;50.52;99473.88;5050878;28;20057;-38
2023/09/22 03:55:05;;;;;;;3.38;1.30;;;;;;;23.03;50.24;99462.59;5050443;28;20053;-39
2023/09/22 03:57:33;;;;;;;3.53;1.02;;;;;;;23.03;50.28;99473.06;5046894;28;20567;-40
2023/09/22 04:00:00;;;;;;;3.63;1.10;;;;;;;23.01;49.91;99464.25;5050250;28;20055;-40
2023/09/22 04:02:39;;;;;;;6.70;1.33;;;;;;;23.00;50.49;99466.25;5044480;28;20049;-38
2023/09/22 04:05:08;;;;;;;3.92;1.10;;;;;;;22.99;50.28;99475.13;5044902;28;20573;-40
2023/09/22 04:07:35;;;;;;;5.43;1.13;;;;;;;22.99;50.16;99464.69;5050411;28;20049;-39
2023/09/22 04:10:03;;;;;;;3.72;1.20;;;;;;;22.96;50.47;99459.91;5049226;28;20064;-39
2023/09/22 04:12:31;;;;;;;5.22;1.25;;;;;;;23.01;49.83;99455.81;5050370;28;20056;-39
2023/09/22 04:14:59;;;;;;;7.05;1.27;;;;;;;22.96;50.31;99462.72;5050222;28;20105;-39
2023/09/22 04:17:27;;;;;;;4.50;1.17;;;;;;;22.91;50.53;99465.22;5050500;28;20415;-40
2023/09/22 04:19:55;;;;;;;4.35;1.10;;;;;;;22.93;50.65;99462.75;5051524;28;20053;-40
2023/09/22 04:22:23;;;;;;;5.18;1.15;;;;;;;22.95;50.76;99460.31;5086652;28;20057;-41
2023/09/22 04:24:59;;;;;;;5.25;1.23;;;;;;;22.93;50.80;99459.97;5064381;28;20056;-41
2023/09/22 04:27:36;;;;;;;5.03;1.27;;;;;;;22.94;50.47;99455.94;5055571;28;20067;-40
2023/09/22 04:30:07;;;;;;;3.97;1.00;;;;;;;22.93;50.68;99459.97;5070497;28;20076;-39
2023/09/22 04:32:35;;;;;;;4.40;1.10;;;;;;;22.97;50.25;99447.47;5070182;28;20056;-39
2023/09/22 04:35:06;;;;;;;4.80;1.20;;;;;;;22.92;50.39;99449.97;5051415;28;20053;-40
2023/09/22 04:37:33;;;;;;;6.90;1.63;;;;;;;22.89;50.60;99448.78;5051365;28;20049;-41
2023/09/22 04:40:11;;;;;;;6.93;1.45;;;;;;;22.85;50.90;99448.06;5051553;28;20045;-40
2023/09/22 04:42:38;;;;;;;4.90;1.73;;;;;;;22.89;50.67;99448.00;5053281;28;20056;-39
2023/09/22 04:45:09;;;;;;;4.00;1.10;;;;;;;22.90;50.45;99455.19;5049088;28;20057;-42
2023/09/22 04:47:37;;;;;;;6.75;1.60;;;;;;;22.89;50.40;99448.78;5040918;28;20065;-39
2023/09/22 04:50:06;;;;;;;6.07;1.50;;;;;;;22.88;50.57;99454.81;5049918;28;20050;-41
2023/09/22 04:52:33;;;;;;;5.40;1.38;;;;;;;22.90;50.48;99455.19;5049145;28;20052;-39
2023/09/22 04:55:01;;;;;;;3.08;1.17;;;;;;;22.94;50.38;99455.94;5036404;28;20057;-41
2023/09/22 04:57:29;;;;;;;5.47;1.40;;;;;;;22.95;50.35;99460.31;5050621;28;20045;-41
2023/09/22 04:59:56;;;;;;;3.67;1.15;;;;;;;22.93;50.49;99460.75;5045139;28;20057;-40
2023/09/22 05:02:23;;;;;;;5.50;1.50;;;;;;;22.93;50.37;99460.75;5051063;28;20052;-40
2023/09/22 05:04:50;;;;;;;6.18;1.63;;;;;;;22.91;50.43;99463.19;5049758;28;20678;-42
2023/09/22 05:07:18;;;;;;;4.70;1.77;;;;;;;22.97;49.98;99452.28;5051100;28;20056;-42
2023/09/22 05:09:45;;;;;;;8.55;1.70;;;;;;;23.05;50.25;99453.72;5050975;28;20071;-39
2023/09/22 05:12:12;;;;;;;7.10;1.42;;;;;;;23.01;50.35;99453.00;5050858;28;20053;-40
2023/09/22 05:14:40;;;;;;;5.03;1.65;;;;;;;23.03;50.03;99451.34;5049688;28;20076;-40
2023/09/22 05:17:07;;;;;;;6.82;1.65;;;;;;;23.07;49.68;99460.53;5050179;28;20056;-40
2023/09/22 05:19:35;;;;;;;5.85;1.52;;;;;;;23.13;49.08;99443.97;5051003;28;20049;-39
2023/09/22 05:22:03;;;;;;;7.97;1.85;;;;;;;23.19;49.06;99448.66;5049773;28;20049;-39
2023/09/22 05:24:31;;;;;;;5.97;1.55;;;;;;;23.18;49.43;99449.09;5050873;28;20057;-41
2023/09/22 05:26:58;;;;;;;3.70;1.40;;;;;;;23.25;48.64;99444.16;5050791;28;20056;-38
2023/09/22 05:29:25;;;;;;;8.50;2.10;;;;;;;23.31;48.83;99448.06;5066468;28;20051;-39
2023/09/22 05:31:53;;;;;;;4.35;1.20;;;;;;;23.33;48.55;99448.44;5051827;28;20053;-38
2023/09/22 05:34:20;;;;;;;7.45;1.70;;;;;;;23.32;48.67;99454.50;5048932;28;20064;-39
2023/09/22 05:36:49;;;;;;;5.72;1.75;;;;;;;23.33;48.64;99450.44;5048695;28;20549;-39
2023/09/22 05:39:16;;;;;;;4.07;1.40;;;;;;;23.30;48.66;99435.25;5065120;28;20064;-40
2023/09/22 05:41:47;;;;;;;6.25;1.60;;;;;;;23.30;48.44;99448.50;5048306;28;20538;-40
2023/09/22 05:44:17;;;;;;;6.15;1.75;;;;;;;23.32;48.47;99432.00;5030750;28;20072;-40
2023/09/22 05:46:45;;;;;;;;;;;;;;;23.31;48.58;99442.44;5040951;28;20045;-42
2023/09/22 05:49:14;;;;;;;7.03;1.60;;;;;;;23.32;48.48;99446.06;5059453;28;20444;-39
2023/09/22 05:51:42;;;;;;;;;;;;;;;23.31;48.38;99441.66;5041115;28;20060;-39
2023/09/22 05:54:09;;;;;;;7.43;1.45;;;;;;;23.35;48.30;99433.94;5030694;28;19921;-41
2023/09/22 05:56:36;;;;;;;5.05;1.33;;;;;;;23.37;48.39;99434.31;5039161;28;20056;-39
2023/09/22 05:59:04;;;;;;;7.70;1.50;;;;;;;23.37;48.26;99429.50;5050392;28;20052;-40
2023/09/22 06:01:35;;;;;;;5.32;1.40;;;;;;;23.40;48.10;99425.81;5050560;28;20045;-41
2023/09/22 06:04:06;;;;;;;5.30;1.48;;;;;;;23.29;48.40;99430.06;5054044;28;20057;-40
2023/09/22 06:06:34;;;;;;;5.55;1.63;;;;;;;23.36;48.27;99430.72;5061502;28;20063;-40
2023/09/22 06:09:01;;;;;;;4.15;1.50;;;;;;;23.41;48.06;99433.00;5073719;28;20052;-40
2023/09/22 06:11:29;;;;;;;4.72;1.48;;;;;;;23.42;48.21;99431.00;5055016;28;20056;-41
2023/09/22 06:13:56;;;;;;;7.20;1.55;;;;;;;23.33;48.29;99445.63;5054293;28;20044;-49
2023/09/22 06:16:25;;;;;;;9.82;1.50;;;;;;;23.35;48.25;99450.81;5060395;28;20068;-50
2023/09/22 06:18:53;;;;;;;5.78;1.30;;;;;;;23.37;48.29;99437.13;5065537;28;20053;-45
2023/09/22 06:21:21;;;;;;;5.03;1.38;;;;;;;23.34;48.56;99452.06;5040320;28;20045;-49
2023/09/22 06:23:49;;;;;;;5.75;1.33;;;;;;;23.31;48.81;99445.25;5053759;28;20068;-47
2023/09/22 06:26:17;;;;;;;6.13;1.73;;;;;;;23.33;48.89;99456.06;5052948;28;20571;-51
2023/09/22 06:28:44;;;;;;;7.80;1.45;;;;;;;23.30;48.96;99460.53;5069637;28;20052;-47
2023/09/22 06:31:12;;;;;;;5.22;1.25;;;;;;;23.28;49.01;99453.75;5065210;28;20055;-45
2023/09/22 06:33:39;;;;;;;8.60;1.70;;;;;;;23.26;49.02;99450.53;5058558;28;20730;-47
2023/09/22 06:36:07;;;;;;;6.45;1.55;;;;;;;23.25;49.31;99454.59;5053098;28;20045;-49
2023/09/22 06:38:34;;;;;;;8.38;1.70;;;;;;;23.18;49.35;99458.31;5051883;28;20059;-44
2023/09/22 06:41:04;;;;;;;6.30;1.50;;;;;;;23.24;49.30;99458.63;5051991;28;20074;-48
2023/09/22 06:43:33;;;;;;;10.93;1.92;;;;;;;23.26;49.40;99453.34;5068700;28;20072;-46
2023/09/22 06:46:03;;;;;;;9.73;1.58;;;;;;;23.20;49.57;99449.47;5048068;28;20491;-51
2023/09/22 06:48:31;;;;;;;4.70;1.17;;;;;;;23.22;49.59;99445.00;5062195;28;20056;-45
2023/09/22 06:50:59;;;;;;;12.15;1.70;;;;;;;23.21;49.83;99449.03;5057998;28;20064;-46
2023/09/22 06:53:28;;;;;;;4.32;1.35;;;;;;;23.21;49.97;99451.03;5050117;28;20049;-47
2023/09/22 06:56:06;;;;;;;9.70;1.37;;;;;;;23.16;50.01;99457.97;5045286;28;20708;-46
2023/09/22 06:58:35;;;;;;;8.55;1.73;;;;;;;22.26;52.72;99456.13;5046334;28;20053;-44
2023/09/22 07:01:12;;;;;;;5.95;1.50;;;;;;;22.26;52.95;99453.34;5047057;28;20053;-47
2023/09/22 07:03:42;;;;;;;6.38;1.48;;;;;;;22.05;53.25;99453.66;5046250;28;20531;-46
2023/09/22 07:06:14;;;;;;;5.87;1.87;;;;;;;22.40;59.23;99457.16;5050416;28;20057;-46
2023/09/22 07:08:45;;;;;;;5.93;1.77;;;;;;;21.85;60.42;99458.31;5050532;28;20358;-45
2023/09/22 07:11:14;;;;;;;9.13;2.25;;;;;;;22.45;61.21;99451.06;5044903;28;20056;-46
2023/09/22 07:13:41;;;;;;;6.55;1.52;;;;;;;22.65;59.88;99452.78;5049829;28;20045;-46
2023/09/22 07:16:09;;;;;;;7.57;1.80;;;;;;;22.84;58.18;99452.06;5050111;28;20052;-51
2023/09/22 07:18:37;;;;;;;9.05;1.58;;;;;;;22.78;57.22;99442.56;5051978;28;20056;-48
2023/09/22 07:21:09;;;;;;;16.17;1.98;;;;;;;22.79;54.56;99437.72;5052174;28;20056;-48
2023/09/22 07:23:37;;;;;;;9.25;1.50;;;;;;;22.97;55.83;99441.84;5048484;28;20052;-50
2023/09/22 07:26:06;;;;;;;7.68;1.70;;;;;;;23.17;55.22;99441.91;5042169;28;20060;-49
2023/09/22 07:28:34;;;;;;;5.78;1.40;;;;;;;23.29;54.34;99428.03;5051964;28;20507;-48
2023/09/22 07:31:15;;;;;;;7.88;1.33;;;;;;;23.36;53.70;99432.75;5049561;28;20048;-45
2023/09/22 07:33:43;;;;;;;7.25;1.73;;;;;;;23.37;53.52;99429.50;5047052;28;20056;-46
2023/09/22 07:36:11;;;;;;;6.47;1.25;;;;;;;23.41;53.33;99440.66;5047456;28;20049;-45
2023/09/22 07:38:39;;;;;;;5.38;1.20;;;;;;;23.42;53.30;99425.38;5044998;28;20046;-47
2023/09/22 07:41:07;;;;;;;5.68;1.30;;;;;;;23.39;53.29;99434.69;5050425;28;20057;-48
2023/09/22 07:43:35;;;;;;;5.30;1.50;;;;;;;23.32;53.38;99434.81;5043234;28;20107;-46
2023/09/22 07:46:06;;;;;;;6.93;2.15;;;;;;;23.24;53.81;99436.16;5028891;28;20049;-49
2023/09/22 07:48:36;;;;;;;10.77;2.10;;;;;;;23.25;54.21;99430.09;5043759;28;20061;-46
2023/09/22 07:51:04;;;;;;;6.20;1.95;;;;;;;23.23;53.71;99431.75;5043365;28;20052;-43
2023/09/22 07:53:33;;;;;;;9.60;1.92;;;;;;;23.20;53.70;99429.78;5049966;28;20071;-45
2023/09/22 07:56:00;;;;;;;7.13;1.70;;;;;;;23.20;53.91;99438.22;5048038;28;20364;-44
2023/09/22 07:58:28;;;;;;;5.20;1.75;;;;;;;23.24;54.11;99441.78;5044417;28;20053;-47
2023/09/22 08:00:58;;;;;;;7.35;1.90;;;;;;;23.28;53.24;99442.50;5044524;28;20045;-66
2023/09/22 08:03:27;;;;;;;4.40;1.50;;;;;;;23.30;54.00;99445.69;5045665;28;20634;-47
2023/09/22 08:05:55;;;;;;;6.22;1.85;;;;;;;23.33;53.64;99440.00;5042630;28;20052;-46
2023/09/22 08:08:24;;;;;;;14.40;3.10;;;;;;;23.26;54.62;99445.72;5043867;28;20056;-48
2023/09/22 08:10:53;;;;;;;21.77;6.60;;;;;;;23.36;56.30;99441.19;5043346;28;20057;-45
2023/09/22 08:13:21;;;;;;;24.73;6.57;;;;;;;23.49;55.46;99442.13;5050593;28;20040;-45
2023/09/22 08:15:49;;;;;;;19.27;5.30;;;;;;;23.49;55.51;99442.13;5049868;28;20052;-49
2023/09/22 08:18:16;;;;;;;11.10;4.28;;;;;;;23.43;55.17;99447.44;5044553;28;20037;-48
2023/09/22 08:20:44;;;;;;;11.57;2.63;;;;;;;23.39;54.72;99457.97;5048537;28;20052;-45
2023/09/22 08:23:11;;;;;;;12.68;2.80;;;;;;;23.36;54.70;99455.22;5040612;28;20053;-45
2023/09/22 08:25:43;;;;;;;9.07;2.65;;;;;;;23.34;54.59;99454.84;5040844;28;20048;-48
2023/09/22 08:28:13;;;;;;;9.48;2.60;;;;;;;23.28;54.56;99450.94;5031127;28;20060;-45
2023/09/22 08:30:40;;;;;;;7.70;2.08;;;;;;;23.24;54.91;99448.16;5048036;28;20045;-46
2023/09/22 08:33:08;;;;;;;8.95;2.10;;;;;;;23.28;55.22;99443.31;5043714;28;20052;-43
2023/09/22 08:35:37;;;;;;;7.03;1.83;;;;;;;23.34;54.99;99447.19;5045150;28;20057;-45
2023/09/22 08:38:19;;;;;;;7.05;2.03;;;;;;;23.37;54.94;99451.97;5035867;28;20707;-42
2023/09/22 08:40:47;;;;;;;9.82;2.15;;;;;;;23.41;54.64;99457.53;5038813;28;20463;-47
2023/09/22 08:43:15;;;;;;;9.23;1.60;;;;;;;23.39;54.67;99459.97;5040372;28;20045;-46
2023/09/22 08:45:45;;;;;;;4.57;1.55;;;;;;;23.41;54.50;99463.16;5039142;28;20057;-43
2023/09/22 08:48:12;;;;;;;5.63;1.55;;;;;;;23.40;54.40;99462.34;5037727;28;20056;-45
2023/09/22 08:50:40;;;;;;;7.25;1.55;;;;;;;23.42;54.28;99471.16;5041458;28;20423;-44
2023/09/22 08:53:08;;;;;;;4.03;1.25;;;;;;;23.43;54.33;99463.53;5036415;28;20045;-43
2023/09/22 08:55:36;;;;;;;5.03;1.27;;;;;;;23.45;54.22;99477.16;5049533;28;20060;-47
2023/09/22 08:58:03;;;;;;;4.50;1.13;;;;;;;23.42;54.19;99459.13;5057137;28;20049;-43
2023/09/22 09:00:31;;;;;;;3.42;1.40;;;;;;;23.42;54.12;99459.13;5039485;28;20053;-43
2023/09/22 09:03:06;;;;;;;6.63;1.45;;;;;;;23.32;54.26;99457.31;5046649;28;20540;-45
2023/09/22 09:05:35;;;;;;;2.70;0.95;;;;;;;23.26;54.56;99450.53;5045861;28;20061;-43
2023/09/22 09:08:17;;;;;;;3.33;1.05;;;;;;;23.27;54.65;99455.75;5048234;28;20064;-45
2023/09/22 09:10:47;;;;;;;2.97;1.08;;;;;;;23.24;54.70;99455.81;5043387;28;20049;-43
2023/09/22 09:13:27;;;;;;;3.25;0.90;;;;;;;23.28;54.47;99457.38;5047383;28;20407;-43
2023/09/22 09:15:57;;;;;;;2.83;1.10;;;;;;;23.32;54.38;99466.53;5046121;28;20132;-47
2023/09/22 09:18:25;;;;;;;3.90;1.02;;;;;;;23.32;54.13;99454.50;5047093;28;20292;-44
2023/09/22 09:21:15;;;;;;;3.55;1.00;;;;;;;23.30;54.08;99462.56;5046134;28;20049;-49
2023/09/22 09:23:53;;;;;;;3.45;1.48;;;;;;;23.00;54.19;99468.25;5047199;28;20045;-47
2023/09/22 09:26:26;;;;;;;2.30;0.70;;;;;;;22.12;55.34;99478.00;5045526;28;20041;-47
2023/09/22 09:28:54;;;;;;;5.03;1.15;;;;;;;22.12;56.44;99470.34;5050350;28;20045;-45
2023/09/22 09:31:45;;;;;;;2.90;0.70;;;;;;;22.58;54.80;99477.38;5044673;28;20037;-45
2023/09/22 09:34:14;;;;;;;1.73;0.60;;;;;;;22.79;54.23;99474.22;5060091;28;20045;-42
2023/09/22 09:36:42;;;;;;;1.35;0.50;;;;;;;22.91;53.94;99480.03;5029032;28;20107;-47
2023/09/22 09:39:12;;;;;;;2.38;0.55;;;;;;;22.96;53.69;99493.59;5051082;28;20511;-44
2023/09/22 09:41:40;;;;;;;;;;;;;;;23.03;53.34;99496.28;5052360;28;20056;-48
2023/09/22 09:44:09;;;;;;;1.65;0.60;;;;;;;23.02;53.63;99499.53;5046584;28;19929;-46
2023/09/22 09:46:39;;;;;;;2.30;0.80;;;;;;;23.06;53.14;99505.91;5051324;28;20052;-49
2023/09/22 09:49:09;;;;;;;2.58;0.90;;;;;;;22.26;54.12;99503.06;5049426;28;20048;-47
2023/09/22 09:51:38;;;;;;;4.00;0.82;;;;;;;22.57;53.11;99510.28;5040167;28;20060;-44
2023/09/22 09:54:08;;;;;;;2.80;1.00;;;;;;;22.87;53.98;99510.22;5047610;28;20049;-45
2023/09/22 09:56:41;;;;;;;2.30;0.90;;;;;;;23.07;52.89;99507.47;5051383;28;20499;-43
2023/09/22 09:59:10;;;;;;;2.08;0.65;;;;;;;22.92;53.48;99514.53;5049894;28;20083;-47
2023/09/22 10:01:38;;;;;;;1.85;0.70;;;;;;;23.03;52.50;99515.94;5046671;28;20041;-44
2023/09/22 10:04:07;;;;;;;2.88;0.70;;;;;;;23.17;52.24;99518.53;5050587;28;20048;-46
2023/09/22 10:06:35;;;;;;;0.52;0.38;;;;;;;23.25;51.77;99538.88;5050797;28;20044;-49
2023/09/22 10:09:18;;;;;;;3.95;1.02;;;;;;;23.21;51.87;99530.50;5048824;28;20112;-53
2023/09/22 10:11:45;;;;;;;2.05;0.80;;;;;;;23.07;51.89;99536.38;5050073;28;20037;-45
2023/09/22 10:14:44;;;;;;;1.65;0.70;;;;;;;22.76;52.93;99545.28;5034021;28;20041;-50
2023/09/22 10:17:30;;;;;;;1.50;0.70;;;;;;;22.98;51.60;99552.97;5049155;28;20059;-45
2023/09/22 10:20:06;;;;;;;1.55;0.65;;;;;;;22.09;54.86;99571.38;5047068;28;20045;-46
2023/09/22 10:22:33;;;;;;;5.85;0.80;;;;;;;21.45;54.19;99590.03;5051688;28;20049;-47
2023/09/22 10:25:13;;;;;;;3.42;0.73;;;;;;;22.00;54.89;99579.53;5050265;28;20067;-47
2023/09/22 10:27:50;;;;;;;2.38;0.70;;;;;;;22.26;54.77;99582.38;5049265;28;20052;-45
2023/09/22 10:30:43;;;;;;;3.15;0.60;;;;;;;22.14;54.12;99588.53;5050882;28;20053;-46
2023/09/22 10:33:26;;;;;;;2.38;0.68;;;;;;;22.18;54.91;99599.72;5053265;28;20037;-43
2023/09/22 10:35:54;;;;;;;1.70;0.60;;;;;;;22.12;54.31;99621.81;5047418;28;20053;-44
2023/09/22 10:38:21;;;;;;;1.63;0.60;;;;;;;21.74;55.48;99625.78;5047593;28;20041;-44
2023/09/22 10:41:01;;;;;;;2.67;0.75;;;;;;;21.96;53.14;99630.03;5047843;28;20040;-44
2023/09/22 10:43:29;;;;;;;5.25;0.65;;;;;;;22.53;53.21;99623.75;5050043;28;20504;-43
2023/09/22 10:45:57;;;;;;;3.42;0.80;;;;;;;22.06;54.26;99643.13;5048001;28;20057;-48
2023/09/22 10:48:30;;;;;;;2.08;0.70;;;;;;;22.05;53.92;99640.75;5050797;28;20825;-49
2023/09/22 10:50:57;;;;;;;4.03;0.90;;;;;;;22.75;52.19;99636.34;5050783;28;20040;-45
2023/09/22 10:53:26;;;;;;;3.75;1.10;;;;;;;22.53;51.92;99641.41;5050529;28;20041;-47
2023/09/22 10:55:57;;;;;;;3.42;1.17;;;;;;;22.28;51.64;99644.50;5048529;28;20426;-43
2023/09/22 10:58:26;;;;;;;1.17;0.57;;;;;;;22.73;51.93;99648.00;5051504;28;20049;-47
2023/09/22 11:00:54;;;;;;;8.88;4.43;;;;;;;22.78;51.59;99650.34;5050690;28;20053;-47
2023/09/22 11:03:22;;;;;;;3.15;1.30;;;;;;;22.99;51.05;99655.69;5046472;28;20076;-43
2023/09/22 11:06:03;;;;;;;2.42;1.13;;;;;;;22.52;51.05;99659.47;5048291;28;20064;-45
2023/09/22 11:08:31;;;;;;;2.53;1.30;;;;;;;22.66;52.21;99658.53;5056157;28;20061;-44
2023/09/22 11:10:59;;;;;;;3.83;1.40;;;;;;;22.77;51.51;99664.81;5045357;28;20423;-49
2023/09/22 11:13:27;;;;;;;3.97;1.85;;;;;;;23.01;51.20;99674.91;5049491;28;20571;-44
2023/09/22 11:15:56;;;;;;;3.40;1.45;;;;;;;23.23;50.42;99677.00;5049099;28;20724;-46
2023/09/22 11:18:24;;;;;;;;;;;;;;;22.92;52.04;99683.06;5059456;28;20052;-41
2023/09/22 11:20:57;;;;;;;7.97;2.95;;;;;;;21.26;58.81;99692.22;5048760;28;20434;-42
2023/09/22 11:23:26;;;;;;;8.23;3.33;;;;;;;21.88;55.20;99704.19;5051377;28;20052;-45
2023/09/22 11:25:57;;;;;;;4.53;2.30;;;;;;;20.26;60.38;99721.00;5048544;28;20052;-44
2023/09/22 11:28:26;;;;;;;3.90;1.50;;;;;;;22.40;54.34;99704.09;5049442;28;20049;-45
2023/09/22 11:30:54;;;;;;;6.40;1.80;;;;;;;22.05;51.71;99722.09;5047217;28;20049;-46
2023/09/22 11:33:22;;;;;;;3.30;1.70;;;;;;;21.00;57.05;99732.78;5055511;28;20499;-42
2023/09/22 11:35:52;;;;;;;3.65;1.50;;;;;;;22.01;54.01;99718.50;5052392;28;20082;-42
2023/09/22 11:38:27;;;;;;;3.75;1.50;;;;;;;22.14;50.16;99720.38;5050019;28;20057;-43
2023/09/22 11:41:04;;;;;;;3.70;1.63;;;;;;;21.24;56.20;99742.25;5050322;28;20049;-45
2023/09/22 11:43:32;;;;;;;3.65;1.70;;;;;;;22.38;52.41;99735.41;5048817;28;20056;-45